createdAt,value
2019-03-21T00:00:55.224Z,42.70
2019-03-21T00:03:25.425Z,47.30
2019-03-21T00:05:55.653Z,43.55
2019-03-21T00:08:25.862Z,44.33
2019-03-21T00:11:38.389Z,48.27
2019-03-21T00:14:35.261Z,42.70
2019-03-21T00:17:06.107Z,47.63
2019-03-21T00:19:37.405Z,44.80
2019-03-21T00:22:07.625Z,44.15
2019-03-21T00:24:38.125Z,47.63
2019-03-21T00:27:08.405Z,45.10
2019-03-21T00:29:38.618Z,44.03
2019-03-21T00:32:08.994Z,43.50
2019-03-21T00:34:39.202Z,40.40
2019-03-21T00:37:09.610Z,41.03
2019-03-21T00:39:39.821Z,39.10
2019-03-21T00:42:10.037Z,37.63
2019-03-21T00:44:40.317Z,41.50
2019-03-21T00:47:10.533Z,43.87
2019-03-21T00:49:40.753Z,42.93
2019-03-21T00:52:10.994Z,41.07
2019-03-21T00:54:41.201Z,36.90
2019-03-21T00:57:11.429Z,40.87
2019-03-21T00:59:41.733Z,41.77
2019-03-21T01:02:12.126Z,43.47
2019-03-21T01:04:42.411Z,40.20
2019-03-21T01:07:12.707Z,38.53
2019-03-21T01:09:42.920Z,38.53
2019-03-21T01:12:13.185Z,39.67
2019-03-21T01:14:43.397Z,39.10
2019-03-21T01:17:13.617Z,46.45
2019-03-21T01:19:43.824Z,44.40
2019-03-21T01:22:14.047Z,43.30
2019-03-21T01:24:44.254Z,44.07
2019-03-21T01:27:14.479Z,40.83
2019-03-21T01:29:44.683Z,43.00
2019-03-21T01:32:14.901Z,38.63
2019-03-21T01:34:45.126Z,38.67
2019-03-21T01:37:15.325Z,44.83
2019-03-21T01:39:45.789Z,40.17
2019-03-21T01:42:16.022Z,42.98
2019-03-21T01:44:46.236Z,39.50
2019-03-21T01:47:16.457Z,38.15
2019-03-21T01:49:47.654Z,37.57
2019-03-21T01:52:17.905Z,41.10
2019-03-21T01:54:48.064Z,42.20
2019-03-21T01:57:18.275Z,40.63
2019-03-21T01:59:48.489Z,41.90
2019-03-21T02:02:18.934Z,38.73
2019-03-21T02:04:49.162Z,40.43
2019-03-21T02:07:19.354Z,42.37
2019-03-21T02:09:49.818Z,39.57
2019-03-21T02:12:20.033Z,37.83
2019-03-21T02:14:52.338Z,37.67
2019-03-21T02:17:22.342Z,39.33
2019-03-21T02:19:52.542Z,39.30
2019-03-21T02:22:22.786Z,38.13
2019-03-21T02:24:52.974Z,37.63
2019-03-21T02:27:23.193Z,36.97
2019-03-21T02:29:53.392Z,39.70
2019-03-21T02:32:23.604Z,38.53
2019-03-21T02:34:53.854Z,38.80
2019-03-21T02:37:24.303Z,38.13
2019-03-21T02:39:59.763Z,43.60
2019-03-21T02:42:26.696Z,40.10
2019-03-21T02:45:08.382Z,37.53
2019-03-21T02:47:28.901Z,38.37
2019-03-21T02:49:59.124Z,34.87
2019-03-21T02:52:29.341Z,36.73
2019-03-21T02:54:59.561Z,39.93
2019-03-21T02:57:29.788Z,36.63
2019-03-21T03:00:00.478Z,43.37
2019-03-21T03:02:30.637Z,39.20
2019-03-21T03:05:01.002Z,38.87
2019-03-21T03:07:31.367Z,37.27
2019-03-21T03:10:01.620Z,38.40
2019-03-21T03:12:31.808Z,40.50
2019-03-21T03:15:02.068Z,38.60
2019-03-21T03:17:32.262Z,41.47
2019-03-21T03:20:02.474Z,37.33
2019-03-21T03:22:32.675Z,38.30
2019-03-21T03:25:03.195Z,37.07
2019-03-21T03:27:33.634Z,36.87
2019-03-21T03:30:03.998Z,39.00
2019-03-21T03:32:34.257Z,36.13
2019-03-21T03:35:04.844Z,36.03
2019-03-21T03:37:35.047Z,37.10
2019-03-21T03:40:06.854Z,36.27
2019-03-21T03:42:37.050Z,37.87
2019-03-21T03:45:10.158Z,36.67
2019-03-21T03:47:40.375Z,40.17
2019-03-21T03:50:11.021Z,36.13
2019-03-21T03:52:41.194Z,37.43
2019-03-21T03:55:12.258Z,37.83
2019-03-21T03:57:42.612Z,33.47
2019-03-21T04:00:15.442Z,34.08
2019-03-21T04:02:46.754Z,37.10
2019-03-21T04:05:17.144Z,34.95
2019-03-21T04:07:48.514Z,36.50
2019-03-21T04:10:30.332Z,36.90
2019-03-21T04:13:00.666Z,37.00
2019-03-21T04:15:30.871Z,37.50
2019-03-21T04:18:01.077Z,39.47
2019-03-21T04:20:32.455Z,36.27
2019-03-21T04:23:03.051Z,36.23
2019-03-21T04:25:39.521Z,38.10
2019-03-21T04:28:13.429Z,38.80
2019-03-21T04:30:44.500Z,33.77
2019-03-21T04:33:14.858Z,36.85
2019-03-21T04:35:45.454Z,35.03
2019-03-21T04:38:15.722Z,33.63
2019-03-21T04:40:45.917Z,34.70
2019-03-21T04:43:16.193Z,36.50
2019-03-21T04:45:46.495Z,35.77
2019-03-21T04:48:16.711Z,36.53
2019-03-21T04:50:46.915Z,33.60
2019-03-21T04:53:17.111Z,35.40
2019-03-21T04:55:47.474Z,34.33
2019-03-21T04:58:17.713Z,36.15
2019-03-21T05:00:50.518Z,34.77
2019-03-21T05:03:20.894Z,37.43
2019-03-21T05:05:51.095Z,35.13
2019-03-21T05:08:21.557Z,36.00
2019-03-21T05:10:51.779Z,39.77
2019-03-21T05:13:21.978Z,36.87
2019-03-21T05:15:52.208Z,35.87
2019-03-21T05:18:26.993Z,36.07
2019-03-21T05:20:57.499Z,37.60
2019-03-21T05:23:27.698Z,37.30
2019-03-21T05:25:57.933Z,36.70
2019-03-21T05:28:28.162Z,36.20
2019-03-21T05:31:04.080Z,36.97
2019-03-21T05:33:34.279Z,37.47
2019-03-21T05:36:05.539Z,37.33
2019-03-21T05:38:35.753Z,37.13
2019-03-21T05:41:05.972Z,37.77
2019-03-21T05:43:40.073Z,41.97
2019-03-21T05:46:11.234Z,38.70
2019-03-21T05:48:41.451Z,39.73
2019-03-21T05:51:11.666Z,40.50
2019-03-21T05:53:41.876Z,38.53
2019-03-21T05:56:12.108Z,38.80
2019-03-21T05:58:42.314Z,39.83
2019-03-21T06:01:13.786Z,40.13
2019-03-21T06:03:50.983Z,42.93
2019-03-21T06:06:28.317Z,42.58
2019-03-21T06:08:58.523Z,42.07
2019-03-21T06:11:28.825Z,41.27
2019-03-21T06:13:59.046Z,40.13
2019-03-21T06:16:37.317Z,41.03
2019-03-21T06:19:23.214Z,39.27
2019-03-21T06:22:18.354Z,40.63
2019-03-21T06:25:05.276Z,43.80
2019-03-21T06:27:35.463Z,41.63
2019-03-21T06:30:07.786Z,44.20
2019-03-21T06:32:38.058Z,42.93
2019-03-21T06:35:21.479Z,43.37
2019-03-21T06:37:52.046Z,47.47
2019-03-21T06:40:22.425Z,47.90
2019-03-21T06:42:52.646Z,42.17
2019-03-21T06:45:22.864Z,44.70
2019-03-21T06:47:53.386Z,45.60
2019-03-21T06:50:23.725Z,46.23
2019-03-21T06:52:54.197Z,47.23
2019-03-21T06:55:24.402Z,44.30
2019-03-21T06:57:54.625Z,46.30
2019-03-21T07:00:25.806Z,43.17
2019-03-21T07:02:56.098Z,45.40
2019-03-21T07:05:26.858Z,47.00
2019-03-21T07:07:57.097Z,44.67
2019-03-21T07:10:27.290Z,44.60
2019-03-21T07:12:57.515Z,44.17
2019-03-21T07:15:27.725Z,47.30
2019-03-21T07:17:57.930Z,46.90
2019-03-21T07:20:28.137Z,44.90
2019-03-21T07:22:58.620Z,46.50
2019-03-21T07:25:28.886Z,44.27
2019-03-21T07:27:59.094Z,49.63
2019-03-21T07:30:29.296Z,46.97
2019-03-21T07:32:59.517Z,45.10
2019-03-21T07:35:29.725Z,44.63
2019-03-21T07:37:59.939Z,46.77
2019-03-21T07:40:30.149Z,46.30
2019-03-21T07:43:01.322Z,43.53
2019-03-21T07:45:31.766Z,49.73
2019-03-21T07:48:01.978Z,47.43
2019-03-21T07:50:32.213Z,44.00
2019-03-21T07:53:02.412Z,47.40
2019-03-21T07:55:32.619Z,46.20
2019-03-21T07:58:02.825Z,46.03
2019-03-21T08:00:33.124Z,44.93
2019-03-21T08:03:03.356Z,46.70
2019-03-21T08:05:40.431Z,43.35
2019-03-21T08:08:06.550Z,44.90
2019-03-21T08:10:37.049Z,44.40
2019-03-21T08:13:07.268Z,42.93
2019-03-21T08:15:38.056Z,44.30
2019-03-21T08:18:08.328Z,42.43
2019-03-21T08:20:38.799Z,42.87
2019-03-21T08:23:09.089Z,39.17
2019-03-21T08:25:39.299Z,40.90
2019-03-21T08:28:10.238Z,40.37
2019-03-21T08:31:11.970Z,40.93
2019-03-21T08:33:42.184Z,38.80
2019-03-21T08:36:12.467Z,38.48
2019-03-21T08:38:43.051Z,41.80
2019-03-21T08:41:13.407Z,39.73
2019-03-21T08:43:43.690Z,41.13
2019-03-21T08:46:13.982Z,41.73
2019-03-21T08:48:44.166Z,40.27
2019-03-21T08:51:14.373Z,41.08
2019-03-21T08:53:44.571Z,39.97
2019-03-21T08:56:14.821Z,41.90
2019-03-21T08:58:45.058Z,39.03
2019-03-21T09:01:15.256Z,42.27
2019-03-21T09:03:46.434Z,41.13
2019-03-21T09:06:16.775Z,38.23
2019-03-21T09:08:46.995Z,39.67
2019-03-21T09:11:17.182Z,38.50
2019-03-21T09:13:47.397Z,37.43
2019-03-21T09:16:17.696Z,38.83
2019-03-21T09:18:47.893Z,40.10
2019-03-21T09:21:20.008Z,37.13
2019-03-21T09:23:50.031Z,39.63
2019-03-21T09:26:20.238Z,37.03
2019-03-21T09:28:50.534Z,42.20
2019-03-21T09:31:20.745Z,41.93
2019-03-21T09:33:50.945Z,42.93
2019-03-21T09:36:21.166Z,42.30
2019-03-21T09:38:51.391Z,42.30
2019-03-21T09:41:21.578Z,41.23
2019-03-21T09:43:51.791Z,42.27
2019-03-21T09:46:22.175Z,41.27
2019-03-21T09:48:52.381Z,42.80
2019-03-21T09:51:30.460Z,40.33
2019-03-21T09:53:55.870Z,41.20
2019-03-21T09:56:26.091Z,38.23
2019-03-21T09:58:56.565Z,39.80
2019-03-21T10:01:26.915Z,40.60
2019-03-21T10:03:57.105Z,37.30
2019-03-21T10:06:27.674Z,36.67
2019-03-21T10:08:57.886Z,39.47
2019-03-21T10:11:28.108Z,36.50
2019-03-21T10:13:58.325Z,38.93
2019-03-21T10:16:28.517Z,38.07
2019-03-21T10:18:58.727Z,36.90
2019-03-21T10:21:29.210Z,34.27
2019-03-21T10:23:59.402Z,31.93
2019-03-21T10:26:29.690Z,31.27
2019-03-21T10:29:00.132Z,33.00
2019-03-21T10:31:31.471Z,31.67
2019-03-21T10:34:01.686Z,33.43
2019-03-21T10:36:32.135Z,33.00
2019-03-21T10:39:02.700Z,34.77
2019-03-21T10:41:32.903Z,37.37
2019-03-21T10:44:03.140Z,36.20
2019-03-21T10:46:34.311Z,35.43
2019-03-21T10:49:05.627Z,32.17
2019-03-21T10:51:35.845Z,30.50
2019-03-21T10:54:06.840Z,29.17
2019-03-21T10:56:37.062Z,26.97
2019-03-21T10:59:07.271Z,24.73
2019-03-21T11:01:37.476Z,27.57
2019-03-21T11:04:07.679Z,23.73
2019-03-21T11:06:38.134Z,23.47
2019-03-21T11:09:10.046Z,22.67
2019-03-21T11:11:40.277Z,21.37
2019-03-21T11:14:10.510Z,26.85
2019-03-21T11:16:40.715Z,24.93
2019-03-21T11:19:11.010Z,20.73
2019-03-21T11:21:41.242Z,20.13
2019-03-21T11:24:11.456Z,19.62
2019-03-21T11:26:41.679Z,18.63
2019-03-21T11:29:11.894Z,16.83
2019-03-21T11:31:42.130Z,18.30
2019-03-21T11:34:12.357Z,18.80
2019-03-21T11:36:42.612Z,19.57
2019-03-21T11:39:12.960Z,18.10
2019-03-21T11:41:43.125Z,18.30
2019-03-21T11:44:13.351Z,19.53
2019-03-21T11:46:43.571Z,21.57
2019-03-21T11:49:13.805Z,20.43
2019-03-21T11:51:44.319Z,21.30
2019-03-21T11:54:14.530Z,21.50
2019-03-21T11:56:44.738Z,23.00
2019-03-21T11:59:15.128Z,23.53
2019-03-21T12:01:45.400Z,24.87
2019-03-21T12:04:15.637Z,21.75
2019-03-21T12:06:46.796Z,23.47
2019-03-21T12:09:17.002Z,22.07
2019-03-21T12:11:47.209Z,21.53
2019-03-21T12:14:17.419Z,21.97
2019-03-21T12:16:47.643Z,22.37
2019-03-21T12:19:17.870Z,20.20
2019-03-21T12:21:48.082Z,21.43
2019-03-21T12:24:18.487Z,21.40
2019-03-21T12:26:48.696Z,21.50
2019-03-21T12:29:18.921Z,22.00
2019-03-21T12:31:49.134Z,22.90
2019-03-21T12:34:19.363Z,22.22
2019-03-21T12:36:49.845Z,22.27
2019-03-21T12:39:20.322Z,22.22
2019-03-21T12:41:50.542Z,20.13
2019-03-21T12:44:20.766Z,21.57
2019-03-21T12:46:50.970Z,21.93
2019-03-21T12:49:24.289Z,22.80
2019-03-21T12:51:54.493Z,23.50
2019-03-21T12:54:24.704Z,21.70
2019-03-21T12:56:54.919Z,21.87
2019-03-21T12:59:25.126Z,21.47
2019-03-21T13:01:55.349Z,22.83
2019-03-21T13:04:25.751Z,21.53
2019-03-21T13:06:55.971Z,18.53
2019-03-21T13:09:26.179Z,21.13
2019-03-21T13:11:56.402Z,21.00
2019-03-21T13:14:27.596Z,20.03
2019-03-21T13:16:57.959Z,18.47
2019-03-21T13:19:28.176Z,20.27
2019-03-21T13:21:58.479Z,19.00
2019-03-21T13:24:28.701Z,19.17
2019-03-21T13:27:00.278Z,17.50
2019-03-21T13:29:30.638Z,17.77
2019-03-21T13:32:00.858Z,19.43
2019-03-21T13:34:32.284Z,19.57
2019-03-21T13:37:02.504Z,19.17
2019-03-21T13:39:33.855Z,17.83
2019-03-21T13:42:04.148Z,17.27
2019-03-21T13:44:34.380Z,18.37
2019-03-21T13:47:05.491Z,20.55
2019-03-21T13:49:35.733Z,19.13
2019-03-21T13:52:05.939Z,19.67
2019-03-21T13:54:37.776Z,19.87
2019-03-21T13:57:07.975Z,19.80
2019-03-21T13:59:38.268Z,17.80
2019-03-21T14:02:09.438Z,18.20
2019-03-21T14:04:39.698Z,19.70
2019-03-21T14:07:09.918Z,19.67
2019-03-21T14:09:40.130Z,18.37
2019-03-21T14:12:10.346Z,17.77
2019-03-21T14:14:40.576Z,17.87
2019-03-21T14:17:21.347Z,18.30
2019-03-21T14:19:42.690Z,20.23
2019-03-21T14:22:12.928Z,18.30
2019-03-21T14:24:43.121Z,18.40
2019-03-21T14:27:13.345Z,19.00
2019-03-21T14:29:43.550Z,19.20
2019-03-21T14:32:14.042Z,20.43
2019-03-21T14:34:44.258Z,19.97
2019-03-21T14:37:14.633Z,21.73
2019-03-21T14:39:44.830Z,20.67
2019-03-21T14:42:15.049Z,21.17
2019-03-21T14:44:45.253Z,21.20
2019-03-21T14:47:15.515Z,21.27
2019-03-21T14:49:45.710Z,19.90
2019-03-21T14:52:15.926Z,20.63
2019-03-21T14:54:46.421Z,20.03
2019-03-21T14:57:16.651Z,19.40
2019-03-21T14:59:46.864Z,16.80
2019-03-21T15:02:17.088Z,19.03
2019-03-21T15:04:47.322Z,20.10
2019-03-21T15:07:18.730Z,20.40
2019-03-21T15:09:49.026Z,18.30
2019-03-21T15:12:19.231Z,18.63
2019-03-21T15:14:49.444Z,18.57
2019-03-21T15:17:19.639Z,18.37
2019-03-21T15:19:49.859Z,17.47
2019-03-21T15:22:20.074Z,18.07
2019-03-21T15:24:50.292Z,17.13
2019-03-21T15:27:20.783Z,17.10
2019-03-21T15:29:51.836Z,15.73
2019-03-21T15:32:22.008Z,15.90
2019-03-21T15:34:52.221Z,16.00
2019-03-21T15:37:22.456Z,16.37
2019-03-21T15:39:52.676Z,15.90
2019-03-21T15:42:22.910Z,17.87
2019-03-21T15:44:53.143Z,17.90
2019-03-21T15:47:23.357Z,19.83
2019-03-21T15:49:53.596Z,18.63
2019-03-21T15:52:23.831Z,18.53
2019-03-21T15:54:54.371Z,18.37
2019-03-21T15:57:24.581Z,17.83
2019-03-21T15:59:54.832Z,18.23
2019-03-21T16:02:25.039Z,20.23
2019-03-21T16:04:55.291Z,19.23
2019-03-21T16:07:25.531Z,20.23
2019-03-21T16:09:55.742Z,20.73
2019-03-21T16:12:26.059Z,21.63
2019-03-21T16:14:56.263Z,22.23
2019-03-21T16:17:26.483Z,20.80
2019-03-21T16:19:56.694Z,22.97
2019-03-21T16:22:26.914Z,23.30
2019-03-21T16:24:57.110Z,22.37
2019-03-21T16:27:27.332Z,23.90
2019-03-21T16:29:57.542Z,25.00
2019-03-21T16:32:27.770Z,22.13
2019-03-21T16:34:57.976Z,21.93
2019-03-21T16:37:28.338Z,23.87
2019-03-21T16:39:58.610Z,23.53
2019-03-21T16:42:29.038Z,23.77
2019-03-21T16:44:59.235Z,23.00
2019-03-21T16:47:29.455Z,25.00
2019-03-21T16:49:59.655Z,22.80
2019-03-21T16:52:30.149Z,22.33
2019-03-21T16:55:00.458Z,25.67
2019-03-21T16:57:30.714Z,22.27
2019-03-21T17:00:00.932Z,23.13
2019-03-21T17:02:31.329Z,24.50
2019-03-21T17:05:01.568Z,23.73
2019-03-21T17:07:31.790Z,27.17
2019-03-21T17:10:01.997Z,26.60
2019-03-21T17:12:32.244Z,25.63
2019-03-21T17:15:02.473Z,26.90
2019-03-21T17:17:32.697Z,26.80
2019-03-21T17:20:03.881Z,24.83
2019-03-21T17:22:34.137Z,27.90
2019-03-21T17:25:06.193Z,26.50
2019-03-21T17:27:36.403Z,24.93
2019-03-21T17:30:07.819Z,24.60
2019-03-21T17:32:38.192Z,24.87
2019-03-21T17:35:08.486Z,27.67
2019-03-21T17:37:38.772Z,25.03
2019-03-21T17:40:09.882Z,24.40
2019-03-21T17:42:40.198Z,24.40
2019-03-21T17:45:12.644Z,25.48
2019-03-21T17:47:42.936Z,22.73
2019-03-21T17:50:13.966Z,24.80
2019-03-21T17:52:44.172Z,26.77
2019-03-21T17:55:14.649Z,25.02
2019-03-21T17:57:45.136Z,24.30
2019-03-21T18:00:16.679Z,25.90
2019-03-21T18:02:48.621Z,25.70
2019-03-21T18:05:18.975Z,28.17
2019-03-21T18:07:49.365Z,26.77
2019-03-21T18:10:27.478Z,27.40
2019-03-21T18:12:57.766Z,27.73
2019-03-21T18:15:28.126Z,27.13
2019-03-21T18:17:58.490Z,26.97
2019-03-21T18:20:29.077Z,27.73
2019-03-21T18:23:00.266Z,26.50
2019-03-21T18:25:30.491Z,28.90
2019-03-21T18:28:00.778Z,38.13
2019-03-21T18:30:31.067Z,38.20
2019-03-21T18:33:01.294Z,37.40
2019-03-21T18:35:31.504Z,35.73
2019-03-21T18:38:02.697Z,33.70
2019-03-21T18:40:32.895Z,32.60
2019-03-21T18:43:03.202Z,33.10
2019-03-21T18:45:33.402Z,33.80
2019-03-21T18:48:03.807Z,35.98
2019-03-21T18:50:34.084Z,35.03
2019-03-21T18:53:04.300Z,34.00
2019-03-21T18:55:34.514Z,34.07
2019-03-21T18:58:05.730Z,34.65
2019-03-21T19:00:35.955Z,32.40
2019-03-21T19:03:06.254Z,33.40
2019-03-21T19:05:36.510Z,31.83
2019-03-21T19:08:06.743Z,34.30
2019-03-21T19:10:37.107Z,39.00
2019-03-21T19:13:07.282Z,37.53
2019-03-21T19:15:37.562Z,34.80
2019-03-21T19:18:07.709Z,35.07
2019-03-21T19:20:38.157Z,39.33
2019-03-21T19:23:08.393Z,38.53
2019-03-21T19:25:38.605Z,36.93
2019-03-21T19:28:08.834Z,35.97
2019-03-21T19:30:39.052Z,37.00
2019-03-21T19:33:09.264Z,38.00
2019-03-21T19:35:39.488Z,36.63
2019-03-21T19:38:09.889Z,36.38
2019-03-21T19:40:40.089Z,35.63
2019-03-21T19:43:10.305Z,36.33
2019-03-21T19:45:40.514Z,35.53
2019-03-21T19:48:10.769Z,34.83
2019-03-21T19:50:41.022Z,34.80
2019-03-21T19:53:11.249Z,35.60
2019-03-21T19:55:41.462Z,35.07
2019-03-21T19:58:11.670Z,34.23
2019-03-21T20:00:42.111Z,36.60
2019-03-21T20:03:12.436Z,35.33
2019-03-21T20:05:42.781Z,36.90
2019-03-21T20:08:13.001Z,31.37
2019-03-21T20:10:43.198Z,38.17
2019-03-21T20:13:13.479Z,35.40
2019-03-21T20:15:43.763Z,32.27
2019-03-21T20:18:13.984Z,38.90
2019-03-21T20:20:44.195Z,36.30
2019-03-21T20:23:14.633Z,36.50
2019-03-21T20:25:44.910Z,40.10
2019-03-21T20:28:15.141Z,37.63
2019-03-21T20:30:45.337Z,40.47
2019-03-21T20:33:15.568Z,37.45
2019-03-21T20:35:45.848Z,42.33
2019-03-21T20:38:16.309Z,39.03
2019-03-21T20:40:46.794Z,39.37
2019-03-21T20:43:16.994Z,40.30
2019-03-21T20:45:47.369Z,42.48
2019-03-21T20:48:16.883Z,42.20
2019-03-21T20:50:47.103Z,43.07
2019-03-21T20:53:19.734Z,39.57
2019-03-21T20:55:53.634Z,40.50
2019-03-21T20:58:21.979Z,41.77
2019-03-21T21:00:52.525Z,40.10
2019-03-21T21:03:22.833Z,43.13
2019-03-21T21:05:53.055Z,44.10
2019-03-21T21:08:23.258Z,42.08
2019-03-21T21:10:53.545Z,45.15
2019-03-21T21:13:23.770Z,45.23
2019-03-21T21:15:54.030Z,46.87
2019-03-21T21:18:24.398Z,50.27
2019-03-21T21:20:54.623Z,52.57
2019-03-21T21:23:24.822Z,50.83
2019-03-21T21:26:05.057Z,50.57
2019-03-21T21:28:26.958Z,45.30
2019-03-21T21:30:57.174Z,45.57
2019-03-21T21:33:27.391Z,44.93
2019-03-21T21:35:57.605Z,47.40
2019-03-21T21:38:27.811Z,48.93
2019-03-21T21:40:58.024Z,48.27
2019-03-21T21:43:28.261Z,50.00
2019-03-21T21:45:58.463Z,48.93
2019-03-21T21:48:28.722Z,50.10
2019-03-21T21:50:58.921Z,52.30
2019-03-21T21:53:29.139Z,50.43
2019-03-21T21:55:59.350Z,54.23
2019-03-21T21:58:29.643Z,50.67
2019-03-21T22:00:59.855Z,55.97
2019-03-21T22:03:30.089Z,55.53
2019-03-21T22:06:00.304Z,51.92
2019-03-21T22:08:30.758Z,56.17
2019-03-21T22:11:01.243Z,50.47
2019-03-21T22:13:31.538Z,54.03
2019-03-21T22:16:01.758Z,52.77
2019-03-21T22:18:32.216Z,52.27
2019-03-21T22:21:02.654Z,53.03
2019-03-21T22:23:33.122Z,50.63
2019-03-21T22:26:03.323Z,53.67
2019-03-21T22:28:33.746Z,53.73
2019-03-21T22:31:04.023Z,54.33
2019-03-21T22:33:34.258Z,53.67
2019-03-21T22:36:06.554Z,54.38
2019-03-21T22:38:36.619Z,55.90
2019-03-21T22:41:06.870Z,51.07
2019-03-21T22:43:37.362Z,55.77
2019-03-21T22:46:07.562Z,55.57
2019-03-21T22:48:37.781Z,50.40
2019-03-21T22:51:07.998Z,57.40
2019-03-21T22:53:38.210Z,52.87
2019-03-21T22:56:08.465Z,55.23
2019-03-21T22:58:38.675Z,50.67
2019-03-21T23:01:09.351Z,51.90
2019-03-21T23:03:39.573Z,50.83
2019-03-21T23:06:10.019Z,53.97
2019-03-21T23:08:40.249Z,58.60
2019-03-21T23:11:10.483Z,56.33
2019-03-21T23:13:40.694Z,56.43
2019-03-21T23:16:10.910Z,52.30
2019-03-21T23:18:41.133Z,57.47
2019-03-21T23:21:11.357Z,56.60
2019-03-21T23:23:41.557Z,57.13
2019-03-21T23:26:11.790Z,50.58
2019-03-21T23:28:41.991Z,59.47
2019-03-21T23:31:12.212Z,61.53
2019-03-21T23:33:42.514Z,59.47
2019-03-21T23:36:12.814Z,59.60
2019-03-21T23:38:43.015Z,60.80
2019-03-21T23:41:13.490Z,60.87
2019-03-21T23:43:43.833Z,57.47
2019-03-21T23:46:14.208Z,60.00
2019-03-21T23:48:44.429Z,57.70
2019-03-21T23:51:14.710Z,63.50
2019-03-21T23:53:44.949Z,61.73
2019-03-21T23:56:15.150Z,56.67
2019-03-21T23:58:45.519Z,62.13
